sensor_id;sensor_type;location;lat;lon;timestamp;pressure;altitude;pressure_sealevel;temperature;humidity
40788;BME280;26497;52.494;7.546;2022-09-23T00:02:09;101237.78;;;12.65;61.67
40788;BME280;26497;52.494;7.546;2022-09-23T00:04:36;101239.56;;;12.62;61.54
40788;BME280;26497;52.494;7.546;2022-09-23T00:07:03;101240.44;;;12.67;61.71
40788;BME280;26497;52.494;7.546;2022-09-23T00:09:30;101242.22;;;12.71;61.41
40788;BME280;26497;52.494;7.546;2022-09-23T00:11:56;101240.44;;;12.79;61.35
40788;BME280;26497;52.494;7.546;2022-09-23T00:14:46;101237.78;;;12.81;61.49
40788;BME280;26497;52.494;7.546;2022-09-23T00:17:15;101231.63;;;12.90;61.34
40788;BME280;26497;52.494;7.546;2022-09-23T00:19:42;101229.84;;;12.82;61.46
40788;BME280;26497;52.494;7.546;2022-09-23T00:22:08;101230.72;;;12.91;61.39
40788;BME280;26497;52.494;7.546;2022-09-23T00:24:35;101225.44;;;12.86;61.58
40788;BME280;26497;52.494;7.546;2022-09-23T00:27:02;101222.78;;;12.83;61.66
40788;BME280;26497;52.494;7.546;2022-09-23T00:29:29;101218.38;;;12.80;61.71
40788;BME280;26497;52.494;7.546;2022-09-23T00:31:56;101218.38;;;12.88;61.89
40788;BME280;26497;52.494;7.546;2022-09-23T00:34:24;101213.94;;;13.03;61.63
40788;BME280;26497;52.494;7.546;2022-09-23T00:36:51;101213.03;;;13.07;61.44
40788;BME280;26497;52.494;7.546;2022-09-23T00:39:18;101212.16;;;13.12;61.81
40788;BME280;26497;52.494;7.546;2022-09-23T00:41:45;101211.25;;;13.15;61.88
40788;BME280;26497;52.494;7.546;2022-09-23T00:44:40;101212.16;;;13.14;61.88
40788;BME280;26497;52.494;7.546;2022-09-23T00:47:11;101214.81;;;13.11;61.99
40788;BME280;26497;52.494;7.546;2022-09-23T00:49:41;101202.44;;;13.13;62.07
40788;BME280;26497;52.494;7.546;2022-09-23T00:52:12;101203.31;;;13.15;61.87
40788;BME280;26497;52.494;7.546;2022-09-23T00:54:40;101195.38;;;13.15;61.98
40788;BME280;26497;52.494;7.546;2022-09-23T00:57:08;101202.44;;;13.21;62.08
40788;BME280;26497;52.494;7.546;2022-09-23T00:59:36;101204.22;;;13.19;61.94
40788;BME280;26497;52.494;7.546;2022-09-23T01:02:03;101202.47;;;13.15;62.04
40788;BME280;26497;52.494;7.546;2022-09-23T01:04:31;101195.38;;;13.18;62.18
40788;BME280;26497;52.494;7.546;2022-09-23T01:07:00;101190.94;;;13.26;61.87
40788;BME280;26497;52.494;7.546;2022-09-23T01:09:26;101197.09;;;13.32;61.72
40788;BME280;26497;52.494;7.546;2022-09-23T01:12:00;101183.84;;;13.35;61.62
40788;BME280;26497;52.494;7.546;2022-09-23T01:14:35;101194.50;;;13.24;61.72
40788;BME280;26497;52.494;7.546;2022-09-23T01:17:08;101190.09;;;13.09;62.05
40788;BME280;26497;52.494;7.546;2022-09-23T01:19:53;101183.03;;;13.16;61.90
40788;BME280;26497;52.494;7.546;2022-09-23T01:22:31;101186.59;;;13.08;61.86
40788;BME280;26497;52.494;7.546;2022-09-23T01:25:10;101182.16;;;13.09;61.87
40788;BME280;26497;52.494;7.546;2022-09-23T01:27:55;101178.63;;;13.07;61.73
40788;BME280;26497;52.494;7.546;2022-09-23T01:30:39;101176.00;;;13.02;61.82
40788;BME280;26497;52.494;7.546;2022-09-23T01:33:09;101178.63;;;13.01;61.80
40788;BME280;26497;52.494;7.546;2022-09-23T01:35:46;101184.81;;;13.00;61.70
40788;BME280;26497;52.494;7.546;2022-09-23T01:38:20;101180.44;;;12.94;61.75
40788;BME280;26497;52.494;7.546;2022-09-23T01:40:51;101182.22;;;12.86;61.88
40788;BME280;26497;52.494;7.546;2022-09-23T01:43:26;101176.91;;;12.81;61.83
40788;BME280;26497;52.494;7.546;2022-09-23T01:45:58;101182.22;;;12.72;61.80
40788;BME280;26497;52.494;7.546;2022-09-23T01:48:28;101184.84;;;12.62;62.09
40788;BME280;26497;52.494;7.546;2022-09-23T01:50:57;101178.69;;;12.60;62.32
40788;BME280;26497;52.494;7.546;2022-09-23T01:53:30;101176.91;;;12.59;62.15
40788;BME280;26497;52.494;7.546;2022-09-23T01:56:03;101172.53;;;12.69;62.03
40788;BME280;26497;52.494;7.546;2022-09-23T01:58:34;101169.00;;;12.67;62.06
40788;BME280;26497;52.494;7.546;2022-09-23T02:01:06;101163.69;;;12.62;62.05
40788;BME280;26497;52.494;7.546;2022-09-23T02:03:35;101163.72;;;12.54;62.37
40788;BME280;26497;52.494;7.546;2022-09-23T02:06:07;101168.13;;;12.57;62.23
40788;BME280;26497;52.494;7.546;2022-09-23T02:08:39;101160.19;;;12.62;62.35
40788;BME280;26497;52.494;7.546;2022-09-23T02:11:08;101170.75;;;12.66;62.05
40788;BME280;26497;52.494;7.546;2022-09-23T02:13:38;101164.56;;;12.67;62.16
40788;BME280;26497;52.494;7.546;2022-09-23T02:16:12;101162.84;;;12.57;62.24
40788;BME280;26497;52.494;7.546;2022-09-23T02:18:44;101159.31;;;12.53;62.33
40788;BME280;26497;52.494;7.546;2022-09-23T02:21:14;101156.66;;;12.58;62.37
40788;BME280;26497;52.494;7.546;2022-09-23T02:23:43;101162.81;;;12.63;62.32
40788;BME280;26497;52.494;7.546;2022-09-23T02:26:15;101149.59;;;12.60;62.16
40788;BME280;26497;52.494;7.546;2022-09-23T02:28:48;101152.25;;;12.51;62.29
40788;BME280;26497;52.494;7.546;2022-09-23T02:31:23;101148.72;;;12.47;62.52
40788;BME280;26497;52.494;7.546;2022-09-23T02:33:54;101140.81;;;12.43;62.76
40788;BME280;26497;52.494;7.546;2022-09-23T02:36:25;101140.78;;;12.44;62.57
40788;BME280;26497;52.494;7.546;2022-09-23T02:38:54;101143.44;;;12.49;62.33
40788;BME280;26497;52.494;7.546;2022-09-23T02:41:26;101137.28;;;12.47;62.27
40788;BME280;26497;52.494;7.546;2022-09-23T02:43:56;101139.03;;;12.52;62.31
40788;BME280;26497;52.494;7.546;2022-09-23T02:46:27;101133.75;;;12.42;62.19
40788;BME280;26497;52.494;7.546;2022-09-23T02:48:55;101129.31;;;12.54;61.96
40788;BME280;26497;52.494;7.546;2022-09-23T02:51:26;101121.38;;;12.54;62.05
40788;BME280;26497;52.494;7.546;2022-09-23T02:53:53;101122.25;;;12.57;62.26
40788;BME280;26497;52.494;7.546;2022-09-23T02:56:21;101118.75;;;12.56;62.01
40788;BME280;26497;52.494;7.546;2022-09-23T02:58:48;101119.63;;;12.58;62.18
40788;BME280;26497;52.494;7.546;2022-09-23T03:01:21;101122.25;;;12.61;62.02
40788;BME280;26497;52.494;7.546;2022-09-23T03:04:02;101108.13;;;12.62;61.95
40788;BME280;26497;52.494;7.546;2022-09-23T03:06:34;101109.94;;;12.51;62.19
40788;BME280;26497;52.494;7.546;2022-09-23T03:09:05;101109.06;;;12.46;62.47
40788;BME280;26497;52.494;7.546;2022-09-23T03:11:36;101102.00;;;12.42;62.60
40788;BME280;26497;52.494;7.546;2022-09-23T03:14:10;101100.22;;;12.39;62.49
40788;BME280;26497;52.494;7.546;2022-09-23T03:16:44;101094.06;;;12.38;62.61
40788;BME280;26497;52.494;7.546;2022-09-23T03:19:20;101098.47;;;12.38;62.46
40788;BME280;26497;52.494;7.546;2022-09-23T03:21:52;101088.78;;;12.38;62.58
40788;BME280;26497;52.494;7.546;2022-09-23T03:24:22;101095.81;;;12.47;62.28
40788;BME280;26497;52.494;7.546;2022-09-23T03:26:50;101095.81;;;12.50;62.23
40788;BME280;26497;52.494;7.546;2022-09-23T03:29:18;101089.66;;;12.42;62.18
40788;BME280;26497;52.494;7.546;2022-09-23T03:31:47;101095.84;;;12.36;62.46
40788;BME280;26497;52.494;7.546;2022-09-23T03:34:17;101094.09;;;12.35;62.40
40788;BME280;26497;52.494;7.546;2022-09-23T03:36:50;101092.31;;;12.30;62.13
40788;BME280;26497;52.494;7.546;2022-09-23T03:39:28;101101.13;;;12.21;62.13
40788;BME280;26497;52.494;7.546;2022-09-23T03:41:59;101095.84;;;12.16;62.32
40788;BME280;26497;52.494;7.546;2022-09-23T03:44:28;101095.84;;;12.08;62.16
40788;BME280;26497;52.494;7.546;2022-09-23T03:46:57;101093.16;;;11.98;62.26
40788;BME280;26497;52.494;7.546;2022-09-23T03:49:26;101094.03;;;11.89;62.30
40788;BME280;26497;52.494;7.546;2022-09-23T03:51:55;101085.22;;;11.87;62.32
40788;BME280;26497;52.494;7.546;2022-09-23T03:54:22;101087.00;;;11.91;62.30
40788;BME280;26497;52.494;7.546;2022-09-23T03:56:49;101078.19;;;11.87;62.14
40788;BME280;26497;52.494;7.546;2022-09-23T03:59:16;101079.94;;;11.77;62.08
40788;BME280;26497;52.494;7.546;2022-09-23T04:01:43;101079.91;;;11.68;62.17
40788;BME280;26497;52.494;7.546;2022-09-23T04:04:10;101076.38;;;11.61;62.43
40788;BME280;26497;52.494;7.546;2022-09-23T04:06:37;101069.34;;;11.62;62.42
40788;BME280;26497;52.494;7.546;2022-09-23T04:09:06;101063.16;;;11.63;62.18
40788;BME280;26497;52.494;7.546;2022-09-23T04:11:33;101074.63;;;11.62;62.42
40788;BME280;26497;52.494;7.546;2022-09-23T04:14:00;101071.97;;;11.57;62.11
40788;BME280;26497;52.494;7.546;2022-09-23T04:16:27;101063.19;;;11.61;62.21
40788;BME280;26497;52.494;7.546;2022-09-23T04:18:54;101067.56;;;11.64;62.19
40788;BME280;26497;52.494;7.546;2022-09-23T04:21:21;101064.03;;;11.59;62.23
40788;BME280;26497;52.494;7.546;2022-09-23T04:23:48;101060.53;;;11.63;61.82
40788;BME280;26497;52.494;7.546;2022-09-23T04:26:16;101062.28;;;11.61;61.68
40788;BME280;26497;52.494;7.546;2022-09-23T04:28:43;101063.16;;;11.54;61.88
40788;BME280;26497;52.494;7.546;2022-09-23T04:31:10;101047.31;;;11.49;62.20
40788;BME280;26497;52.494;7.546;2022-09-23T04:33:37;101059.63;;;11.47;62.23
40788;BME280;26497;52.494;7.546;2022-09-23T04:36:04;101048.19;;;11.48;62.23
40788;BME280;26497;52.494;7.546;2022-09-23T04:38:31;101050.78;;;11.40;62.22
40788;BME280;26497;52.494;7.546;2022-09-23T04:40:58;101046.41;;;11.34;62.21
40788;BME280;26497;52.494;7.546;2022-09-23T04:43:26;101037.56;;;11.34;62.56
40788;BME280;26497;52.494;7.546;2022-09-23T04:45:57;101049.03;;;11.42;62.39
40788;BME280;26497;52.494;7.546;2022-09-23T04:48:25;101044.63;;;11.35;62.42
40788;BME280;26497;52.494;7.546;2022-09-23T04:50:51;101042.84;;;11.37;62.39
40788;BME280;26497;52.494;7.546;2022-09-23T04:53:18;101042.88;;;11.40;62.26
40788;BME280;26497;52.494;7.546;2022-09-23T04:55:45;101042.03;;;11.46;62.13
40788;BME280;26497;52.494;7.546;2022-09-23T04:58:12;101034.97;;;11.45;62.07
40788;BME280;26497;52.494;7.546;2022-09-23T05:00:40;101039.38;;;11.40;62.09
40788;BME280;26497;52.494;7.546;2022-09-23T05:03:07;101038.50;;;11.41;61.93
40788;BME280;26497;52.494;7.546;2022-09-23T05:05:34;101035.84;;;11.42;62.14
40788;BME280;26497;52.494;7.546;2022-09-23T05:08:01;101030.50;;;11.27;62.12
40788;BME280;26497;52.494;7.546;2022-09-23T05:10:28;101041.09;;;11.24;62.20
40788;BME280;26497;52.494;7.546;2022-09-23T05:12:56;101040.22;;;11.21;62.63
40788;BME280;26497;52.494;7.546;2022-09-23T05:15:23;101036.66;;;11.21;62.50
40788;BME280;26497;52.494;7.546;2022-09-23T05:17:51;101039.34;;;11.23;62.24
40788;BME280;26497;52.494;7.546;2022-09-23T05:20:18;101039.34;;;11.27;62.43
40788;BME280;26497;52.494;7.546;2022-09-23T05:22:45;101036.72;;;11.33;62.21
40788;BME280;26497;52.494;7.546;2022-09-23T05:25:12;101041.13;;;11.38;62.23
40788;BME280;26497;52.494;7.546;2022-09-23T05:27:39;101039.34;;;11.35;62.46
40788;BME280;26497;52.494;7.546;2022-09-23T05:30:08;101044.63;;;11.35;62.36
40788;BME280;26497;52.494;7.546;2022-09-23T05:32:36;101044.63;;;11.38;62.37
40788;BME280;26497;52.494;7.546;2022-09-23T05:35:04;101049.06;;;11.41;62.82
40788;BME280;26497;52.494;7.546;2022-09-23T05:37:32;101044.66;;;11.46;62.88
40788;BME280;26497;52.494;7.546;2022-09-23T05:39:59;101049.94;;;11.50;62.91
40788;BME280;26497;52.494;7.546;2022-09-23T05:42:26;101053.47;;;11.53;62.83
40788;BME280;26497;52.494;7.546;2022-09-23T05:44:53;101045.53;;;11.53;62.85
40788;BME280;26497;52.494;7.546;2022-09-23T05:47:20;101051.72;;;11.67;63.31
40788;BME280;26497;52.494;7.546;2022-09-23T05:49:47;101059.69;;;11.84;63.43
40788;BME280;26497;52.494;7.546;2022-09-23T05:52:15;101050.00;;;11.94;63.33
40788;BME280;26497;52.494;7.546;2022-09-23T05:54:42;101059.69;;;12.09;63.56
40788;BME280;26497;52.494;7.546;2022-09-23T05:57:09;101051.78;;;12.14;63.68
40788;BME280;26497;52.494;7.546;2022-09-23T05:59:36;101061.44;;;12.29;63.72
40788;BME280;26497;52.494;7.546;2022-09-23T06:02:03;101056.13;;;12.44;64.18
40788;BME280;26497;52.494;7.546;2022-09-23T06:04:30;101052.53;;;12.75;65.62
40788;BME280;26497;52.494;7.546;2022-09-23T06:06:57;101056.66;;;13.47;66.94
40788;BME280;26497;52.494;7.546;2022-09-23T06:09:25;101051.56;;;14.30;67.65
40788;BME280;26497;52.494;7.546;2022-09-23T06:11:52;101050.59;;;15.18;67.86
40788;BME280;26497;52.494;7.546;2022-09-23T06:14:19;101049.00;;;16.24;67.65
40788;BME280;26497;52.494;7.546;2022-09-23T06:16:46;101049.25;;;17.04;64.67
40788;BME280;26497;52.494;7.546;2022-09-23T06:19:13;101042.00;;;17.11;60.99
40788;BME280;26497;52.494;7.546;2022-09-23T06:21:39;101043.84;;;17.07;59.92
40788;BME280;26497;52.494;7.546;2022-09-23T06:24:07;101047.34;;;17.11;59.14
40788;BME280;26497;52.494;7.546;2022-09-23T06:26:36;101044.56;;;17.16;58.86
40788;BME280;26497;52.494;7.546;2022-09-23T06:29:08;101044.69;;;17.09;58.41
40788;BME280;26497;52.494;7.546;2022-09-23T06:31:36;101044.75;;;17.08;58.24
40788;BME280;26497;52.494;7.546;2022-09-23T06:34:05;101041.94;;;17.14;58.52
40788;BME280;26497;52.494;7.546;2022-09-23T06:36:32;101045.91;;;17.73;57.91
40788;BME280;26497;52.494;7.546;2022-09-23T06:38:58;101042.41;;;18.44;56.43
40788;BME280;26497;52.494;7.546;2022-09-23T06:41:26;101034.94;;;19.18;53.37
40788;BME280;26497;52.494;7.546;2022-09-23T06:43:55;101027.66;;;19.80;51.02
40788;BME280;26497;52.494;7.546;2022-09-23T06:46:21;101027.34;;;20.16;45.84
40788;BME280;26497;52.494;7.546;2022-09-23T06:48:49;101022.41;;;20.55;44.82
40788;BME280;26497;52.494;7.546;2022-09-23T06:51:16;101019.72;;;21.04;45.84
40788;BME280;26497;52.494;7.546;2022-09-23T06:53:45;101022.38;;;21.50;42.64
40788;BME280;26497;52.494;7.546;2022-09-23T06:56:12;101017.63;;;22.01;38.79
40788;BME280;26497;52.494;7.546;2022-09-23T06:58:39;101018.84;;;22.56;37.08
40788;BME280;26497;52.494;7.546;2022-09-23T07:01:09;101017.66;;;23.59;36.78
40788;BME280;26497;52.494;7.546;2022-09-23T07:03:36;101011.25;;;24.50;34.06
40788;BME280;26497;52.494;7.546;2022-09-23T07:06:04;101020.66;;;24.92;31.49
40788;BME280;26497;52.494;7.546;2022-09-23T07:08:32;101018.69;;;25.44;33.56
40788;BME280;26497;52.494;7.546;2022-09-23T07:11:00;101019.72;;;26.04;30.48
40788;BME280;26497;52.494;7.546;2022-09-23T07:13:28;101011.50;;;26.22;28.68
40788;BME280;26497;52.494;7.546;2022-09-23T07:15:57;101022.50;;;26.33;28.43
40788;BME280;26497;52.494;7.546;2022-09-23T07:18:29;101011.53;;;26.50;27.87
40788;BME280;26497;52.494;7.546;2022-09-23T07:21:04;101015.09;;;26.37;27.60
40788;BME280;26497;52.494;7.546;2022-09-23T07:23:31;101015.88;;;26.97;27.95
40788;BME280;26497;52.494;7.546;2022-09-23T07:25:59;101017.47;;;27.28;27.09
40788;BME280;26497;52.494;7.546;2022-09-23T07:28:26;101015.00;;;27.11;27.11
40788;BME280;26497;52.494;7.546;2022-09-23T07:30:53;101013.47;;;26.48;27.37
40788;BME280;26497;52.494;7.546;2022-09-23T07:33:20;101020.44;;;25.77;28.83
40788;BME280;26497;52.494;7.546;2022-09-23T07:35:48;101017.31;;;24.37;30.98
40788;BME280;26497;52.494;7.546;2022-09-23T07:38:15;101018.78;;;23.73;32.33
40788;BME280;26497;52.494;7.546;2022-09-23T07:40:42;101025.47;;;23.08;33.18
40788;BME280;26497;52.494;7.546;2022-09-23T07:43:09;101018.63;;;22.61;34.44
40788;BME280;26497;52.494;7.546;2022-09-23T07:45:37;101020.97;;;22.49;34.68
40788;BME280;26497;52.494;7.546;2022-09-23T07:48:08;101019.84;;;22.33;34.64
40788;BME280;26497;52.494;7.546;2022-09-23T07:50:38;101027.66;;;22.18;35.36
40788;BME280;26497;52.494;7.546;2022-09-23T07:53:06;101017.47;;;22.04;35.99
40788;BME280;26497;52.494;7.546;2022-09-23T07:55:33;101016.69;;;21.82;36.63
40788;BME280;26497;52.494;7.546;2022-09-23T07:58:00;101023.88;;;21.57;37.52
40788;BME280;26497;52.494;7.546;2022-09-23T08:00:28;101026.13;;;21.24;37.55
40788;BME280;26497;52.494;7.546;2022-09-23T08:02:54;101026.19;;;21.44;37.47
40788;BME280;26497;52.494;7.546;2022-09-23T08:05:21;101024.47;;;21.65;37.32
40788;BME280;26497;52.494;7.546;2022-09-23T08:07:48;101018.94;;;21.70;36.76
40788;BME280;26497;52.494;7.546;2022-09-23T08:10:16;101028.56;;;21.52;37.21
40788;BME280;26497;52.494;7.546;2022-09-23T08:12:46;101022.47;;;21.71;37.29
40788;BME280;26497;52.494;7.546;2022-09-23T08:15:13;101030.66;;;22.10;36.77
40788;BME280;26497;52.494;7.546;2022-09-23T08:17:41;101023.25;;;22.16;36.52
40788;BME280;26497;52.494;7.546;2022-09-23T08:20:09;101027.28;;;22.05;36.63
40788;BME280;26497;52.494;7.546;2022-09-23T08:22:57;101024.13;;;21.95;36.91
40788;BME280;26497;52.494;7.546;2022-09-23T08:25:25;101030.78;;;22.07;37.03
40788;BME280;26497;52.494;7.546;2022-09-23T08:27:52;101030.38;;;22.17;36.70
40788;BME280;26497;52.494;7.546;2022-09-23T08:30:19;101027.44;;;22.23;36.58
40788;BME280;26497;52.494;7.546;2022-09-23T08:32:49;101027.03;;;22.32;36.85
40788;BME280;26497;52.494;7.546;2022-09-23T08:35:16;101032.81;;;22.44;36.10
40788;BME280;26497;52.494;7.546;2022-09-23T08:37:44;101025.06;;;23.16;35.36
40788;BME280;26497;52.494;7.546;2022-09-23T08:40:12;101015.00;;;23.58;34.22
40788;BME280;26497;52.494;7.546;2022-09-23T08:42:41;101026.03;;;24.25;33.45
40788;BME280;26497;52.494;7.546;2022-09-23T08:45:12;101020.53;;;24.44;32.44
40788;BME280;26497;52.494;7.546;2022-09-23T08:47:42;101020.66;;;24.25;32.50
40788;BME280;26497;52.494;7.546;2022-09-23T08:50:14;101021.75;;;24.38;32.41
40788;BME280;26497;52.494;7.546;2022-09-23T08:52:46;101013.25;;;24.11;32.77
40788;BME280;26497;52.494;7.546;2022-09-23T08:55:15;101017.16;;;24.05;32.96
40788;BME280;26497;52.494;7.546;2022-09-23T08:57:49;101009.88;;;24.07;32.86
40788;BME280;26497;52.494;7.546;2022-09-23T09:00:21;101012.41;;;24.28;32.49
40788;BME280;26497;52.494;7.546;2022-09-23T09:02:50;101015.06;;;24.46;32.88
40788;BME280;26497;52.494;7.546;2022-09-23T09:05:23;101011.63;;;24.26;32.83
40788;BME280;26497;52.494;7.546;2022-09-23T09:07:51;101013.59;;;24.56;32.43
40788;BME280;26497;52.494;7.546;2022-09-23T09:10:20;101013.09;;;24.65;31.84
40788;BME280;26497;52.494;7.546;2022-09-23T09:12:49;101006.28;;;24.76;32.32
40788;BME280;26497;52.494;7.546;2022-09-23T09:15:20;101006.31;;;24.58;31.83
40788;BME280;26497;52.494;7.546;2022-09-23T09:17:53;101009.84;;;24.42;32.31
40788;BME280;26497;52.494;7.546;2022-09-23T09:20:30;101008.13;;;24.24;32.31
40788;BME280;26497;52.494;7.546;2022-09-23T09:23:01;101003.69;;;24.05;32.27
40788;BME280;26497;52.494;7.546;2022-09-23T09:25:37;101009.88;;;24.07;32.56
40788;BME280;26497;52.494;7.546;2022-09-23T09:28:14;101005.75;;;24.00;32.20
40788;BME280;26497;52.494;7.546;2022-09-23T09:30:44;101003.53;;;24.08;32.31
40788;BME280;26497;52.494;7.546;2022-09-23T09:33:13;101000.06;;;24.06;32.62
40788;BME280;26497;52.494;7.546;2022-09-23T09:35:53;100989.41;;;23.85;33.06
40788;BME280;26497;52.494;7.546;2022-09-23T09:38:25;100997.69;;;23.98;33.42
40788;BME280;26497;52.494;7.546;2022-09-23T09:40:52;100992.28;;;24.00;32.76
40788;BME280;26497;52.494;7.546;2022-09-23T09:43:22;100990.97;;;23.90;32.90
40788;BME280;26497;52.494;7.546;2022-09-23T09:45:59;100993.13;;;24.18;32.61
40788;BME280;26497;52.494;7.546;2022-09-23T09:48:31;100983.09;;;24.55;32.21
40788;BME280;26497;52.494;7.546;2022-09-23T09:51:16;100986.59;;;25.07;31.08
40788;BME280;26497;52.494;7.546;2022-09-23T09:53:43;100988.50;;;25.21;31.41
40788;BME280;26497;52.494;7.546;2022-09-23T09:56:12;100989.28;;;25.55;30.70
40788;BME280;26497;52.494;7.546;2022-09-23T09:58:44;100983.94;;;25.70;30.56
40788;BME280;26497;52.494;7.546;2022-09-23T10:01:22;100980.63;;;25.65;30.08
40788;BME280;26497;52.494;7.546;2022-09-23T10:03:51;100978.31;;;25.58;30.29
40788;BME280;26497;52.494;7.546;2022-09-23T10:06:21;100970.25;;;25.73;30.35
40788;BME280;26497;52.494;7.546;2022-09-23T10:09:14;100975.19;;;25.81;29.98
40788;BME280;26497;52.494;7.546;2022-09-23T10:12:01;100981.72;;;25.46;31.12
40788;BME280;26497;52.494;7.546;2022-09-23T10:14:29;100971.16;;;25.57;30.58
40788;BME280;26497;52.494;7.546;2022-09-23T10:17:00;100968.59;;;25.70;30.22
40788;BME280;26497;52.494;7.546;2022-09-23T10:19:30;100974.47;;;25.46;30.71
40788;BME280;26497;52.494;7.546;2022-09-23T10:21:58;100969.84;;;25.65;30.27
40788;BME280;26497;52.494;7.546;2022-09-23T10:24:26;100974.78;;;25.40;30.69
40788;BME280;26497;52.494;7.546;2022-09-23T10:26:57;100961.69;;;25.18;30.82
40788;BME280;26497;52.494;7.546;2022-09-23T10:29:30;100965.84;;;25.56;31.04
40788;BME280;26497;52.494;7.546;2022-09-23T10:32:28;100963.41;;;25.51;30.54
40788;BME280;26497;52.494;7.546;2022-09-23T10:34:57;100969.31;;;25.42;30.66
40788;BME280;26497;52.494;7.546;2022-09-23T10:37:31;100964.50;;;25.63;30.62
40788;BME280;26497;52.494;7.546;2022-09-23T10:39:59;100955.41;;;25.50;30.43
40788;BME280;26497;52.494;7.546;2022-09-23T10:42:52;100951.34;;;25.73;30.00
40788;BME280;26497;52.494;7.546;2022-09-23T10:45:50;100955.56;;;26.08;30.48
40788;BME280;26497;52.494;7.546;2022-09-23T10:48:42;100949.34;;;26.65;30.04
40788;BME280;26497;52.494;7.546;2022-09-23T10:51:17;100951.34;;;26.76;29.56
40788;BME280;26497;52.494;7.546;2022-09-23T10:53:52;100950.81;;;26.42;28.88
40788;BME280;26497;52.494;7.546;2022-09-23T10:56:29;100944.31;;;26.73;29.03
40788;BME280;26497;52.494;7.546;2022-09-23T10:59:18;100952.00;;;27.08;29.22
40788;BME280;26497;52.494;7.546;2022-09-23T11:01:59;100953.34;;;27.16;28.64
40788;BME280;26497;52.494;7.546;2022-09-23T11:04:43;100947.06;;;27.01;28.97
40788;BME280;26497;52.494;7.546;2022-09-23T11:07:20;100951.03;;;27.10;28.55
40788;BME280;26497;52.494;7.546;2022-09-23T11:12:39;100942.66;;;27.55;28.38
40788;BME280;26497;52.494;7.546;2022-09-23T11:15:17;100938.16;;;27.81;27.87
40788;BME280;26497;52.494;7.546;2022-09-23T11:20:50;100932.47;;;29.01;25.83
40788;BME280;26497;52.494;7.546;2022-09-23T11:23:56;100934.69;;;29.80;26.18
40788;BME280;26497;52.494;7.546;2022-09-23T11:26:32;100925.50;;;30.28;25.07
40788;BME280;26497;52.494;7.546;2022-09-23T11:29:20;100930.28;;;30.13;24.77
40788;BME280;26497;52.494;7.546;2022-09-23T11:31:56;100930.22;;;29.90;25.47
40788;BME280;26497;52.494;7.546;2022-09-23T11:34:37;100909.78;;;30.09;25.14
40788;BME280;26497;52.494;7.546;2022-09-23T11:37:10;100924.53;;;29.93;25.05
40788;BME280;26497;52.494;7.546;2022-09-23T11:39:41;100921.25;;;29.54;25.19
40788;BME280;26497;52.494;7.546;2022-09-23T11:42:13;100912.28;;;28.92;25.88
40788;BME280;26497;52.494;7.546;2022-09-23T11:44:46;100920.50;;;28.53;26.42
40788;BME280;26497;52.494;7.546;2022-09-23T11:47:18;100906.66;;;28.32;26.79
40788;BME280;26497;52.494;7.546;2022-09-23T11:49:50;100905.22;;;28.00;27.27
40788;BME280;26497;52.494;7.546;2022-09-23T11:52:20;100912.00;;;27.54;27.88
40788;BME280;26497;52.494;7.546;2022-09-23T11:54:51;100899.75;;;27.48;28.25
40788;BME280;26497;52.494;7.546;2022-09-23T11:57:23;100905.63;;;27.68;27.95
40788;BME280;26497;52.494;7.546;2022-09-23T11:59:55;100901.66;;;27.46;27.69
40788;BME280;26497;52.494;7.546;2022-09-23T12:02:24;100898.25;;;27.57;28.25
40788;BME280;26497;52.494;7.546;2022-09-23T12:05:00;100902.59;;;27.73;27.79
40788;BME280;26497;52.494;7.546;2022-09-23T12:07:33;100895.03;;;28.04;27.78
40788;BME280;26497;52.494;7.546;2022-09-23T12:10:07;100897.75;;;28.30;27.65
40788;BME280;26497;52.494;7.546;2022-09-23T12:12:37;100894.16;;;27.90;27.82
40788;BME280;26497;52.494;7.546;2022-09-23T12:15:11;100889.59;;;27.65;28.46
40788;BME280;26497;52.494;7.546;2022-09-23T12:17:57;100895.28;;;27.20;28.73
40788;BME280;26497;52.494;7.546;2022-09-23T12:20:41;100894.69;;;27.02;29.25
40788;BME280;26497;52.494;7.546;2022-09-23T12:23:20;100893.22;;;27.11;29.37
40788;BME280;26497;52.494;7.546;2022-09-23T12:25:53;100893.28;;;26.82;29.09
40788;BME280;26497;52.494;7.546;2022-09-23T12:28:23;100891.38;;;26.69;29.71
40788;BME280;26497;52.494;7.546;2022-09-23T12:30:52;100887.66;;;26.43;30.40
40788;BME280;26497;52.494;7.546;2022-09-23T12:33:22;100889.28;;;26.31;30.67
40788;BME280;26497;52.494;7.546;2022-09-23T12:35:53;100886.06;;;26.53;30.82
40788;BME280;26497;52.494;7.546;2022-09-23T12:38:22;100882.78;;;26.62;30.42
40788;BME280;26497;52.494;7.546;2022-09-23T12:40:51;100881.81;;;26.63;30.44
40788;BME280;26497;52.494;7.546;2022-09-23T12:43:28;100879.97;;;26.64;30.56
40788;BME280;26497;52.494;7.546;2022-09-23T12:46:15;100880.38;;;26.58;30.65
40788;BME280;26497;52.494;7.546;2022-09-23T12:48:44;100882.19;;;26.57;30.79
40788;BME280;26497;52.494;7.546;2022-09-23T12:51:17;100880.41;;;26.14;30.49
40788;BME280;26497;52.494;7.546;2022-09-23T12:57:08;100877.25;;;26.22;30.47
40788;BME280;26497;52.494;7.546;2022-09-23T12:59:55;100873.56;;;26.23;30.79
40788;BME280;26497;52.494;7.546;2022-09-23T13:02:32;100865.63;;;26.05;31.62
40788;BME280;26497;52.494;7.546;2022-09-23T13:05:15;100873.38;;;26.26;31.04
40788;BME280;26497;52.494;7.546;2022-09-23T13:08:05;100877.78;;;25.98;31.22
40788;BME280;26497;52.494;7.546;2022-09-23T13:10:37;100871.59;;;26.11;31.34
40788;BME280;26497;52.494;7.546;2022-09-23T13:13:05;100865.84;;;26.31;31.43
40788;BME280;26497;52.494;7.546;2022-09-23T13:15:33;100861.78;;;26.39;31.02
40788;BME280;26497;52.494;7.546;2022-09-23T13:18:23;100865.28;;;26.68;31.28
40788;BME280;26497;52.494;7.546;2022-09-23T13:20:50;100863.75;;;27.06;30.58